createdAt,value
2023-05-05T00:03:18.255Z,13.42
2023-05-05T00:06:48.187Z,13.37
2023-05-05T00:10:17.640Z,13.33
2023-05-05T00:13:46.887Z,13.29
2023-05-05T00:17:16.428Z,13.25
2023-05-05T00:20:45.674Z,13.22
2023-05-05T00:24:14.596Z,13.19
2023-05-05T00:27:44.112Z,13.16
2023-05-05T00:31:14.294Z,13.14
2023-05-05T00:34:43.373Z,13.12
2023-05-05T00:37:12.476Z,13.09
2023-05-05T00:40:12.143Z,13.05
2023-05-05T00:43:37.835Z,13.00
2023-05-05T00:47:05.473Z,12.97
2023-05-05T00:50:17.434Z,12.93
2023-05-05T00:53:46.517Z,12.88
2023-05-05T00:57:05.443Z,12.84
2023-05-05T01:00:35.425Z,12.81
2023-05-05T01:04:04.988Z,12.79
2023-05-05T01:07:32.787Z,12.80
2023-05-05T01:10:59.396Z,12.81
2023-05-05T01:14:32.112Z,12.85
2023-05-05T01:18:04.558Z,12.89
2023-05-05T01:21:27.942Z,12.92
2023-05-05T01:25:15.493Z,12.95
2023-05-05T01:29:02.697Z,12.98
2023-05-05T01:32:51.403Z,13.00
2023-05-05T01:36:16.830Z,13.02
2023-05-05T01:39:46.588Z,13.03
2023-05-05T01:43:15.800Z,13.05
2023-05-05T01:46:26.387Z,13.07
2023-05-05T01:49:38.891Z,13.10
2023-05-05T01:53:08.128Z,13.13
2023-05-05T01:56:37.885Z,13.16
2023-05-05T02:00:07.818Z,13.17
2023-05-05T02:03:38.100Z,13.21
2023-05-05T02:06:57.782Z,13.25
2023-05-05T02:10:30.182Z,13.24
2023-05-05T02:13:59.671Z,13.24
2023-05-05T02:17:19.185Z,13.23
2023-05-05T02:20:48.453Z,13.23
2023-05-05T02:24:17.980Z,13.21
2023-05-05T02:27:47.318Z,13.16
2023-05-05T02:31:08.349Z,13.15
2023-05-05T02:34:37.649Z,13.12
2023-05-05T02:38:07.238Z,13.05
2023-05-05T02:41:36.631Z,12.99
2023-05-05T02:44:59.659Z,12.92
2023-05-05T02:48:31.988Z,12.85
2023-05-05T02:51:41.379Z,12.75
2023-05-05T02:54:50.747Z,12.66
2023-05-05T02:57:29.698Z,12.59
2023-05-05T03:01:12.283Z,12.51
2023-05-05T03:04:30.267Z,12.44
2023-05-05T03:08:28.071Z,12.37
2023-05-05T03:11:48.281Z,12.31
2023-05-05T03:15:17.674Z,12.25
2023-05-05T03:18:37.065Z,12.17
2023-05-05T03:22:06.466Z,12.13
2023-05-05T03:25:28.503Z,12.09
2023-05-05T03:28:37.702Z,12.05
2023-05-05T03:32:08.133Z,12.02
2023-05-05T03:35:38.297Z,12.00
2023-05-05T03:38:20.848Z,11.98
2023-05-05T03:41:44.238Z,11.95
2023-05-05T03:44:53.552Z,11.92
2023-05-05T03:47:55.672Z,11.90
2023-05-05T03:50:52.092Z,11.87
2023-05-05T03:54:21.635Z,11.85
2023-05-05T03:57:06.973Z,11.82
2023-05-05T04:00:36.093Z,11.78
2023-05-05T04:04:05.259Z,11.75
2023-05-05T04:07:17.506Z,11.70
2023-05-05T04:10:47.102Z,11.66
2023-05-05T04:14:16.685Z,11.64
2023-05-05T04:16:46.036Z,11.64
2023-05-05T04:20:05.023Z,11.65
2023-05-05T04:23:14.186Z,11.67
2023-05-05T04:25:43.389Z,11.68
2023-05-05T04:29:13.656Z,11.70
2023-05-05T04:32:26.224Z,11.71
2023-05-05T04:35:57.115Z,11.70
2023-05-05T04:39:11.321Z,11.68
2023-05-05T04:42:23.527Z,11.69
2023-05-05T04:45:53.435Z,11.71
2023-05-05T04:49:22.555Z,11.75
2023-05-05T04:52:52.774Z,11.77
2023-05-05T04:56:22.123Z,11.80
2023-05-05T04:59:51.144Z,11.83
2023-05-05T05:03:02.051Z,11.86
2023-05-05T05:10:14.307Z,11.91
2023-05-05T05:13:36.378Z,11.92
2023-05-05T05:17:05.821Z,11.92
2023-05-05T05:20:35.551Z,11.96
2023-05-05T05:23:54.796Z,11.95
2023-05-05T05:27:13.790Z,11.97
2023-05-05T05:30:43.206Z,11.96
2023-05-05T05:34:12.900Z,11.97
2023-05-05T05:37:06.083Z,11.99
2023-05-05T05:40:35.366Z,12.01
2023-05-05T05:43:10.206Z,12.02
2023-05-05T05:45:58.167Z,12.02
2023-05-05T05:48:50.546Z,12.01
2023-05-05T05:51:50.082Z,11.98
2023-05-05T05:55:19.094Z,11.92
2023-05-05T05:58:19.538Z,11.83
2023-05-05T06:01:48.697Z,11.79
2023-05-05T06:05:18.027Z,11.73
2023-05-05T06:08:47.706Z,11.69
2023-05-05T06:12:06.341Z,11.65
2023-05-05T06:15:36.730Z,11.60
2023-05-05T06:19:06.307Z,11.56
2023-05-05T06:21:58.281Z,11.52
2023-05-05T06:25:00.936Z,11.47
2023-05-05T06:28:10.326Z,11.44
2023-05-05T06:31:40.503Z,11.41
2023-05-05T06:35:11.432Z,11.37
2023-05-05T06:38:41.188Z,11.31
2023-05-05T06:41:51.515Z,11.27
2023-05-05T06:45:20.788Z,11.25
2023-05-05T06:48:42.924Z,11.22
2023-05-05T06:52:12.202Z,11.19
2023-05-05T06:55:41.797Z,11.16
2023-05-05T06:59:11.173Z,11.15
2023-05-05T07:02:40.911Z,11.12
2023-05-05T07:06:10.429Z,11.10
2023-05-05T07:08:49.843Z,11.09
2023-05-05T07:11:22.026Z,11.08
2023-05-05T07:14:00.384Z,11.06
2023-05-05T07:17:29.722Z,11.06
2023-05-05T07:20:18.532Z,11.04
2023-05-05T07:23:18.102Z,11.05
2023-05-05T07:26:47.600Z,11.05
2023-05-05T07:30:11.171Z,11.07
2023-05-05T07:33:43.444Z,11.10
2023-05-05T07:37:11.882Z,11.11
2023-05-05T07:40:41.407Z,11.11
2023-05-05T07:43:44.632Z,11.13
2023-05-05T07:47:14.210Z,11.15
2023-05-05T07:50:43.386Z,11.20
2023-05-05T07:54:12.489Z,11.24
2023-05-05T07:57:05.106Z,11.28
2023-05-05T08:00:34.291Z,11.31
2023-05-05T08:03:28.401Z,11.33
2023-05-05T08:06:48.193Z,11.35
2023-05-05T08:10:17.621Z,11.37
2023-05-05T08:13:04.244Z,11.41
2023-05-05T08:16:34.085Z,11.42
2023-05-05T08:19:28.770Z,11.42
2023-05-05T08:22:42.152Z,11.42
2023-05-05T08:26:11.573Z,11.40
2023-05-05T08:29:20.840Z,11.38
2023-05-05T08:32:39.395Z,11.38
2023-05-05T08:35:42.886Z,11.40
2023-05-05T08:39:12.266Z,11.42
2023-05-05T08:42:01.739Z,11.44
2023-05-05T08:45:11.922Z,11.45
2023-05-05T08:48:24.724Z,11.46
2023-05-05T08:51:54.101Z,11.46
2023-05-05T08:55:23.136Z,11.46
2023-05-05T08:58:52.648Z,11.46
2023-05-05T09:02:15.383Z,11.45
2023-05-05T09:05:44.853Z,11.42
2023-05-05T09:09:14.170Z,11.39
2023-05-05T09:12:43.789Z,11.35
2023-05-05T09:16:05.329Z,11.30
2023-05-05T09:19:34.635Z,11.25
2023-05-05T09:23:04.289Z,11.19
2023-05-05T09:25:54.582Z,11.12
2023-05-05T09:29:24.032Z,11.07
2023-05-05T09:33:02.338Z,11.01
2023-05-05T09:36:34.231Z,10.94
2023-05-05T09:40:06.540Z,10.89
2023-05-05T09:43:29.350Z,10.83
2023-05-05T09:47:21.932Z,10.79
2023-05-05T09:51:00.680Z,10.73
2023-05-05T09:54:30.047Z,10.68
2023-05-05T09:56:59.550Z,10.62
2023-05-05T10:00:30.354Z,10.56
2023-05-05T10:03:59.303Z,10.52
2023-05-05T10:07:28.819Z,10.51
2023-05-05T10:10:57.800Z,10.46
2023-05-05T10:14:27.118Z,10.43
2023-05-05T10:18:06.990Z,10.40
2023-05-05T10:20:52.816Z,10.35
2023-05-05T10:24:22.266Z,10.30
2023-05-05T10:27:34.087Z,10.27
2023-05-05T10:31:20.036Z,10.23
2023-05-05T10:35:03.173Z,10.21
2023-05-05T10:38:32.609Z,10.22
2023-05-05T10:42:04.928Z,10.23
2023-05-05T10:44:57.574Z,10.24
2023-05-05T10:47:29.795Z,10.26
2023-05-05T10:50:44.901Z,10.26
2023-05-05T10:53:43.074Z,10.25
2023-05-05T10:56:32.530Z,10.20
2023-05-05T10:59:41.749Z,10.33
2023-05-05T11:02:32.469Z,10.31
2023-05-05T11:05:28.144Z,10.33
2023-05-05T11:09:06.334Z,10.33
2023-05-05T11:12:23.424Z,10.31
2023-05-05T11:16:04.810Z,10.31
2023-05-05T11:19:10.886Z,10.30
2023-05-05T11:22:02.640Z,10.31
2023-05-05T11:24:37.952Z,10.31
2023-05-05T11:27:07.322Z,10.31
2023-05-05T11:30:36.281Z,10.32
2023-05-05T11:33:50.029Z,10.35
2023-05-05T11:36:30.697Z,10.36
2023-05-05T11:39:38.912Z,10.38
2023-05-05T11:42:53.447Z,10.41
2023-05-05T11:46:23.888Z,10.45
2023-05-05T11:49:53.484Z,10.48
2023-05-05T11:52:35.885Z,10.50
2023-05-05T11:55:40.430Z,10.49
2023-05-05T11:58:42.649Z,10.47
2023-05-05T12:01:57.616Z,10.47
2023-05-05T12:04:58.255Z,10.47
2023-05-05T12:08:22.198Z,10.48
2023-05-05T12:11:32.352Z,10.50
2023-05-05T12:15:13.880Z,10.52
2023-05-05T12:18:14.005Z,10.52
2023-05-05T12:21:43.408Z,10.52
2023-05-05T12:25:06.732Z,10.49
2023-05-05T12:28:35.999Z,10.44
2023-05-05T12:31:55.912Z,10.41
2023-05-05T12:35:19.071Z,10.38
2023-05-05T12:37:51.690Z,10.34
2023-05-05T12:41:09.138Z,10.32
2023-05-05T12:44:27.504Z,10.30
2023-05-05T12:47:02.569Z,10.28
2023-05-05T12:49:35.053Z,10.26
2023-05-05T12:52:25.260Z,10.25
2023-05-05T12:55:38.301Z,10.23
2023-05-05T12:58:57.106Z,10.20
2023-05-05T13:01:40.621Z,10.16
2023-05-05T13:05:04.511Z,10.14
2023-05-05T13:08:34.232Z,10.12
2023-05-05T13:11:56.076Z,10.10
2023-05-05T13:15:25.354Z,10.07
2023-05-05T13:18:54.933Z,10.05
2023-05-05T13:22:24.046Z,10.03
2023-05-05T13:25:43.418Z,10.03
2023-05-05T13:29:14.320Z,10.03
2023-05-05T13:32:43.898Z,10.02
2023-05-05T13:36:12.964Z,10.04
2023-05-05T13:39:33.348Z,10.04
2023-05-05T13:43:03.801Z,10.04
2023-05-05T13:46:20.200Z,10.03
2023-05-05T13:49:49.589Z,10.04
2023-05-05T13:53:10.486Z,10.04
2023-05-05T13:56:40.452Z,10.08
2023-05-05T13:59:50.217Z,10.12
2023-05-05T14:03:00.004Z,10.16
2023-05-05T14:06:29.299Z,10.23
2023-05-05T14:09:58.915Z,10.29
2023-05-05T14:13:17.526Z,10.33
2023-05-05T14:16:49.432Z,10.37
2023-05-05T14:20:20.461Z,10.43
2023-05-05T14:23:50.017Z,10.47
2023-05-05T14:26:59.457Z,10.51
2023-05-05T14:30:16.891Z,10.56
2023-05-05T14:33:26.601Z,10.61
2023-05-05T14:36:25.780Z,10.66
2023-05-05T14:39:28.994Z,10.70
2023-05-05T14:42:57.539Z,10.73
2023-05-05T14:46:09.297Z,10.76
2023-05-05T14:49:38.603Z,10.78
2023-05-05T14:52:47.940Z,10.78
2023-05-05T14:55:45.925Z,10.79
2023-05-05T14:58:38.666Z,10.83
2023-05-05T15:02:07.955Z,10.85
2023-05-05T15:05:17.520Z,10.86
2023-05-05T15:08:46.858Z,10.87
2023-05-05T15:12:16.291Z,10.87
2023-05-05T15:15:10.237Z,10.89
2023-05-05T15:18:09.685Z,10.91
2023-05-05T15:21:39.179Z,10.92
2023-05-05T15:24:29.651Z,10.92
2023-05-05T15:27:19.572Z,10.92
2023-05-05T15:30:49.514Z,10.90
2023-05-05T15:33:52.457Z,10.86
2023-05-05T15:36:41.906Z,10.84
2023-05-05T15:39:56.471Z,10.81
2023-05-05T15:43:23.589Z,10.76
2023-05-05T15:46:19.489Z,10.71
2023-05-05T15:49:39.459Z,10.67
2023-05-05T15:52:58.279Z,10.65
2023-05-05T15:56:26.527Z,10.63
2023-05-05T15:59:55.837Z,10.62
2023-05-05T16:03:25.297Z,10.60
2023-05-05T16:06:56.151Z,10.57
2023-05-05T16:09:48.567Z,10.56
2023-05-05T16:13:17.811Z,10.54
2023-05-05T16:16:48.711Z,10.54
2023-05-05T16:20:18.593Z,10.52
2023-05-05T16:23:28.226Z,10.52
2023-05-05T16:26:22.083Z,10.51
2023-05-05T16:29:17.864Z,10.50
2023-05-05T16:32:37.344Z,10.48
2023-05-05T16:35:37.181Z,10.48
2023-05-05T16:38:46.535Z,10.49
2023-05-05T16:42:15.645Z,10.49
2023-05-05T16:45:27.146Z,10.48
2023-05-05T16:48:36.163Z,10.46
2023-05-05T16:52:05.180Z,10.43
2023-05-05T16:55:34.387Z,10.40
2023-05-05T16:59:03.839Z,10.37
2023-05-05T17:02:15.874Z,10.37
2023-05-05T17:05:47.214Z,10.38
2023-05-05T17:09:18.480Z,10.41
2023-05-05T17:12:48.689Z,10.46
2023-05-05T17:16:18.370Z,10.50
2023-05-05T17:19:48.225Z,10.55
2023-05-05T17:23:17.858Z,10.61
2023-05-05T17:26:27.511Z,10.66
2023-05-05T17:29:57.498Z,10.69
2023-05-05T17:33:26.858Z,10.73
2023-05-05T17:36:56.026Z,10.77
2023-05-05T17:40:27.169Z,10.80
2023-05-05T17:43:56.510Z,10.83
2023-05-05T17:47:27.389Z,10.85
2023-05-05T17:50:56.803Z,10.87
2023-05-05T17:54:25.995Z,10.89
2023-05-05T17:57:55.042Z,10.91
2023-05-05T18:01:24.700Z,10.93
2023-05-05T18:04:36.735Z,10.92
2023-05-05T18:07:59.257Z,10.91
2023-05-05T18:11:28.106Z,10.93
2023-05-05T18:14:57.615Z,10.95
2023-05-05T18:18:28.400Z,10.93
2023-05-05T18:21:58.420Z,10.97
2023-05-05T18:25:27.877Z,10.99
2023-05-05T18:28:57.081Z,11.00
2023-05-05T18:32:15.476Z,10.99
2023-05-05T18:35:20.256Z,11.01
2023-05-05T18:38:33.262Z,11.04
2023-05-05T18:41:51.441Z,11.07
2023-05-05T18:45:21.227Z,11.07
2023-05-05T18:48:50.290Z,11.10
2023-05-05T18:52:19.910Z,11.12
2023-05-05T18:55:49.355Z,11.11
2023-05-05T18:59:16.968Z,11.09
2023-05-05T19:02:46.517Z,11.07
2023-05-05T19:05:57.992Z,11.04
2023-05-05T19:09:27.672Z,11.03
2023-05-05T19:12:47.473Z,11.04
2023-05-05T19:16:17.737Z,11.02
2023-05-05T19:19:37.110Z,10.97
2023-05-05T19:23:06.157Z,10.93
2023-05-05T19:26:35.481Z,10.89
2023-05-05T19:30:05.247Z,10.87
2023-05-05T19:33:34.636Z,10.85
2023-05-05T19:37:03.936Z,10.84
2023-05-05T19:40:33.270Z,10.83
2023-05-05T19:43:10.662Z,10.82
2023-05-05T19:46:41.276Z,10.81
2023-05-05T19:50:10.709Z,10.81
2023-05-05T19:53:39.891Z,10.79
2023-05-05T19:57:01.605Z,10.78
2023-05-05T20:00:31.299Z,10.76
2023-05-05T20:04:00.664Z,10.77
2023-05-05T20:07:29.787Z,10.77
2023-05-05T20:10:48.255Z,10.77
2023-05-05T20:14:16.974Z,10.77
2023-05-05T20:17:46.948Z,10.79
2023-05-05T20:21:19.174Z,10.82
2023-05-05T20:24:48.412Z,10.83
2023-05-05T20:28:18.604Z,10.84
2023-05-05T20:31:47.605Z,10.86
2023-05-05T20:35:09.819Z,10.89
2023-05-05T20:38:21.624Z,10.93
2023-05-05T20:41:50.861Z,10.99
2023-05-05T20:45:20.213Z,11.01
2023-05-05T20:48:49.515Z,11.04
2023-05-05T20:52:19.016Z,11.07
2023-05-05T20:55:48.298Z,11.11
2023-05-05T20:59:18.950Z,11.17
2023-05-05T21:02:41.309Z,11.22
2023-05-05T21:06:00.235Z,11.25
2023-05-05T21:09:29.802Z,11.29
2023-05-05T21:13:00.159Z,11.34
2023-05-05T21:16:20.988Z,11.38
2023-05-05T21:19:50.480Z,11.42
2023-05-05T21:23:19.650Z,11.45
2023-05-05T21:26:40.166Z,11.52
2023-05-05T21:29:29.770Z,11.56
2023-05-05T21:32:59.363Z,11.59
2023-05-05T21:36:08.145Z,11.62
2023-05-05T21:39:38.047Z,11.64
2023-05-05T21:43:07.611Z,11.68
2023-05-05T21:46:39.760Z,11.71
2023-05-05T21:50:16.755Z,11.77
2023-05-05T21:53:45.794Z,11.82
2023-05-05T21:56:59.072Z,11.82
2023-05-05T22:00:28.339Z,11.84
2023-05-05T22:03:51.448Z,11.84
2023-05-05T22:06:36.988Z,11.82
2023-05-05T22:10:06.766Z,11.78
2023-05-05T22:13:36.198Z,11.76
2023-05-05T22:17:06.269Z,11.72
2023-05-05T22:20:35.603Z,11.70
2023-05-05T22:24:04.797Z,11.70
2023-05-05T22:27:34.054Z,11.67
2023-05-05T22:30:30.555Z,11.65
2023-05-05T22:33:59.685Z,11.62
2023-05-05T22:37:29.309Z,11.61
2023-05-05T22:40:59.124Z,11.58
2023-05-05T22:44:18.699Z,11.58
2023-05-05T22:47:40.263Z,11.56
2023-05-05T22:50:18.882Z,11.56
2023-05-05T22:53:08.894Z,11.56
2023-05-05T22:56:07.679Z,11.57
2023-05-05T22:58:40.305Z,11.58
2023-05-05T23:01:39.687Z,11.59
2023-05-05T23:05:09.019Z,11.58
2023-05-05T23:07:58.641Z,11.57
2023-05-05T23:11:12.072Z,11.57
2023-05-05T23:13:41.087Z,11.59
2023-05-05T23:17:01.516Z,11.61
2023-05-05T23:19:37.136Z,11.63
2023-05-05T23:22:48.825Z,11.62
2023-05-05T23:25:23.661Z,11.63
2023-05-05T23:28:45.477Z,11.63
2023-05-05T23:31:56.493Z,11.62
2023-05-05T23:34:39.998Z,11.63
2023-05-05T23:37:08.964Z,11.63
2023-05-05T23:39:40.971Z,11.64
2023-05-05T23:42:13.325Z,11.67
2023-05-05T23:45:23.276Z,11.70
2023-05-05T23:47:53.418Z,11.78
2023-05-05T23:51:02.861Z,11.82
2023-05-05T23:53:32.003Z,11.89
2023-05-05T23:56:18.506Z,11.93
2023-05-05T23:59:29.226Z,11.96
